ROMMA est une association bénévole à but non lucratif. Votre soutien est indispensable : ADHERER à ROMMA ou FAIRE un DON

Granges-lès-Beaumont - (26, Drôme)

Drôme des Collines (155 m)   Longitude: 04°58'E   Latitude: 45°03'N Station partenaire n°123
 

Détail journalier du     <<     >>

Température Precipitation Humidité Pression Vent Dir Rafale Dir. rafale Ensol.
Heure (°C) (mm) (%) (hPa) (km/h) (km/h) (min)
01:00 13.6077101612N23N0
02:00 12.8079101610NNO23NNE0
03:00 12.0081101611NNO21NNO0
04:00 11.3083101610NNO18NO0
05:00 11.108310167NNE15NNO0
06:00 10.908310167N16NNO0
07:00 10.708310173N10NO0
08:00 12.407910176N21NNE0
09:00 14.4073101713NNE27N0
10:00 16.6067101717NNE32NNE20
11:00 19.2063101716NNE31NNE60
12:00 21.2058101716NNO32NNO60
13:00 22.5049101719NNE35N60
14:00 23.6046101717N35NNE60
15:00 23.7043101619NNO32NE60
16:00 24.1041101618NNO35NO60
17:00 24.2039101618NNO35NNE60
18:00 23.1040101618N34NNE60
19:00 22.1041101616NNO37NNO60
20:00 20.1045101615N32N30
21:00 18.3053101611N23NNO0
22:00 16.905810178N18N0
23:00 16.006210177NNE15N0
minuit 14.706610174NE10NE0

Graphique du 22-05-2019

 

Serveur OMMA